createdAt,value
2016-03-18T00:00:02.740Z,1024.23
2016-03-18T00:01:15.492Z,1024.19
2016-03-18T00:02:02.777Z,1024.27
2016-03-18T00:03:02.795Z,1024.25
2016-03-18T00:04:02.828Z,1024.17
2016-03-18T00:05:02.816Z,1024.19
2016-03-18T00:06:04.241Z,1024.14
2016-03-18T00:07:02.842Z,1024.18
2016-03-18T00:08:02.893Z,1024.19
2016-03-18T00:09:02.864Z,1024.17
2016-03-18T00:10:15.631Z,1024.17
2016-03-18T00:11:02.901Z,1024.17
2016-03-18T00:12:02.919Z,1024.2
2016-03-18T00:13:02.937Z,1024.17
2016-03-18T00:14:15.689Z,1024.09
2016-03-18T00:15:02.958Z,1024.15
2016-03-18T00:16:02.977Z,1024.21
2016-03-18T00:17:02.995Z,1024.23
2016-03-18T00:18:02.997Z,1024.22
2016-03-18T00:19:03.015Z,1024.22
2016-03-18T00:20:03.019Z,1024.16
2016-03-18T00:21:03.052Z,1024.18
2016-03-18T00:22:15.821Z,1024.18
2016-03-18T00:23:03.074Z,1024.22
2016-03-18T00:24:03.091Z,1024.15
2016-03-18T00:25:03.110Z,1024.2
2016-03-18T00:26:03.113Z,1024.18
2016-03-18T00:27:12.834Z,1024.2
2016-03-18T00:28:12.743Z,1024.15
2016-03-18T00:29:12.746Z,1024.15
2016-03-18T00:30:12.748Z,1024.09
2016-03-18T00:31:12.784Z,1024.04
2016-03-18T00:32:12.802Z,1024
2016-03-18T00:33:12.805Z,1024.01
2016-03-18T00:34:12.822Z,1023.99
2016-03-18T00:35:12.825Z,1024
2016-03-18T00:36:12.844Z,1023.91
2016-03-18T00:37:12.863Z,1023.92
2016-03-18T00:38:25.615Z,1023.89
2016-03-18T00:40:12.917Z,1023.83
2016-03-18T00:41:12.920Z,1023.82
2016-03-18T00:42:28.125Z,1023.77
2016-03-18T00:43:28.143Z,1023.81
2016-03-18T00:44:28.162Z,1023.74
2016-03-18T00:45:28.180Z,1023.72
2016-03-18T00:46:28.183Z,1023.71
2016-03-18T00:47:28.201Z,1023.71
2016-03-18T00:48:28.220Z,1023.68
2016-03-18T00:49:28.223Z,1023.67
2016-03-18T00:50:40.990Z,1023.67
2016-03-18T00:51:40.993Z,1023.65
2016-03-18T00:52:28.277Z,1023.61
2016-03-18T00:53:28.280Z,1023.58
2016-03-18T00:54:28.314Z,1023.55
2016-03-18T00:55:31.410Z,1023.58
2016-03-18T00:56:31.429Z,1023.55
2016-03-18T00:57:31.431Z,1023.54
2016-03-18T00:58:31.434Z,1023.56
2016-03-18T00:59:31.469Z,1023.51
2016-03-18T01:00:31.472Z,1023.49
2016-03-18T01:01:44.224Z,1023.45
2016-03-18T01:02:31.508Z,1023.44
2016-03-18T01:03:31.510Z,1023.41
2016-03-18T01:04:31.528Z,1023.38
2016-03-18T01:05:31.547Z,1023.39
2016-03-18T01:06:44.299Z,1023.4
2016-03-18T01:07:31.573Z,1023.3
2016-03-18T01:08:50.793Z,1023.3
2016-03-18T01:09:31.609Z,1023.31
2016-03-18T01:10:31.612Z,1023.33
2016-03-18T01:11:31.629Z,1023.29
2016-03-18T01:13:31.651Z,1023.25
2016-03-18T01:14:31.685Z,1023.22
2016-03-18T01:15:31.688Z,1023.27
2016-03-18T01:16:31.706Z,1023.24
2016-03-18T01:17:31.912Z,1023.2
2016-03-18T01:18:31.930Z,1023.23
2016-03-18T01:19:31.745Z,1023.24
2016-03-18T01:20:31.748Z,1023.21
2016-03-18T01:21:31.767Z,1023.27
2016-03-18T01:22:31.784Z,1023.2
2016-03-18T01:23:31.803Z,1023.19
2016-03-18T01:24:38.072Z,1023.15
2016-03-18T01:25:31.824Z,1023.15
2016-03-18T01:26:31.842Z,1023.12
2016-03-18T01:27:31.861Z,1023.09
2016-03-18T01:28:31.879Z,1023.1
2016-03-18T01:29:31.882Z,1023.05
2016-03-18T01:30:31.899Z,1023.03
2016-03-18T01:31:31.918Z,1022.99
2016-03-18T01:32:31.921Z,1023.07
2016-03-18T01:33:38.204Z,1022.98
2016-03-18T01:34:31.958Z,1022.95
2016-03-18T01:35:31.976Z,1022.99
2016-03-18T01:36:31.994Z,1022.95
2016-03-18T01:37:33.418Z,1022.95
2016-03-18T01:38:44.749Z,1022.91
2016-03-18T01:39:35.065Z,1022.91
2016-03-18T01:40:32.037Z,1022.89
2016-03-18T01:41:32.054Z,1022.86
2016-03-18T01:42:32.073Z,1022.87
2016-03-18T01:43:32.091Z,1022.9
2016-03-18T01:44:33.515Z,1022.84
2016-03-18T01:45:32.112Z,1022.87
2016-03-18T01:46:51.333Z,1022.86
2016-03-18T01:47:44.883Z,1022.84
2016-03-18T01:48:32.214Z,1022.91
2016-03-18T01:49:32.169Z,1022.97
2016-03-18T01:50:32.189Z,1022.89
2016-03-18T01:51:57.878Z,1022.84
2016-03-18T01:52:32.225Z,1022.83
2016-03-18T01:53:32.228Z,1022.83
2016-03-18T01:54:32.245Z,1022.81
2016-03-18T01:55:32.264Z,1022.82
2016-03-18T01:56:32.266Z,1022.82
2016-03-18T01:57:32.911Z,1022.78
2016-03-18T01:58:45.053Z,1022.83
2016-03-18T01:59:32.338Z,1022.84
2016-03-18T02:00:32.340Z,1022.82
2016-03-18T02:01:45.093Z,1022.77
2016-03-18T02:03:47.536Z,1022.77
2016-03-18T02:04:47.554Z,1022.76
2016-03-18T02:05:47.572Z,1022.73
2016-03-18T02:06:47.591Z,1022.74
2016-03-18T02:07:57.188Z,1022.75
2016-03-18T02:08:57.205Z,1022.7
2016-03-18T02:10:09.945Z,1022.69
2016-03-18T02:10:57.242Z,1022.7
2016-03-18T02:11:57.245Z,1022.66
2016-03-18T02:12:58.668Z,1022.62
2016-03-18T02:13:57.297Z,1022.63
2016-03-18T02:14:57.284Z,1022.63
2016-03-18T02:16:10.180Z,1022.59
2016-03-18T02:16:57.352Z,1022.6
2016-03-18T02:18:23.014Z,1022.56
2016-03-18T02:18:57.342Z,1022.56
2016-03-18T02:19:57.359Z,1022.57
2016-03-18T02:20:57.378Z,1022.57
2016-03-18T02:21:57.397Z,1022.52
2016-03-18T02:22:57.400Z,1022.52
2016-03-18T02:24:10.155Z,1022.47
2016-03-18T02:24:57.436Z,1022.46
2016-03-18T02:25:57.453Z,1022.42
2016-03-18T02:26:57.472Z,1022.4
2016-03-18T02:27:57.475Z,1022.39
2016-03-18T02:29:10.230Z,1022.37
2016-03-18T02:29:57.511Z,1022.38
2016-03-18T02:30:57.530Z,1022.38
2016-03-18T02:31:57.533Z,1022.36
2016-03-18T02:32:57.551Z,1022.37
2016-03-18T02:33:58.179Z,1022.37
2016-03-18T02:34:57.572Z,1022.34
2016-03-18T02:35:57.605Z,1022.35
2016-03-18T02:37:23.283Z,1022.33
2016-03-18T02:37:57.627Z,1022.34
2016-03-18T02:39:57.658Z,1022.36
2016-03-18T02:40:57.673Z,1022.36
2016-03-18T02:41:57.676Z,1022.3
2016-03-18T02:42:58.367Z,1022.33
2016-03-18T02:43:57.698Z,1022.36
2016-03-18T02:44:57.716Z,1022.27
2016-03-18T02:45:57.734Z,1022.28
2016-03-18T02:46:57.737Z,1022.27
2016-03-18T02:47:57.755Z,1022.24
2016-03-18T02:48:57.774Z,1022.23
2016-03-18T02:49:57.776Z,1022.25
2016-03-18T02:50:57.795Z,1022.22
2016-03-18T02:51:57.813Z,1022.17
2016-03-18T02:52:57.848Z,1022.23
2016-03-18T02:53:57.850Z,1022.24
2016-03-18T02:54:57.868Z,1022.22
2016-03-18T02:55:57.887Z,1022.17
2016-03-18T02:57:10.642Z,1022.11
2016-03-18T02:57:57.908Z,1022.1
2016-03-18T02:58:57.925Z,1022.09
2016-03-18T02:59:57.928Z,1022.06
2016-03-18T03:00:57.946Z,1022.08
2016-03-18T03:01:57.964Z,1022.05
2016-03-18T03:02:57.999Z,1022.08
2016-03-18T03:03:58.001Z,1022.07
2016-03-18T03:04:58.019Z,1022.05
2016-03-18T03:05:58.039Z,1022.03
2016-03-18T03:06:58.041Z,1022.04
2016-03-18T03:08:23.733Z,1021.98
2016-03-18T03:09:17.283Z,1021.94
2016-03-18T03:09:58.080Z,1021.97
2016-03-18T03:10:58.098Z,1021.96
2016-03-18T03:11:58.117Z,1021.96
2016-03-18T03:12:58.135Z,1021.92
2016-03-18T03:13:58.154Z,1021.9
2016-03-18T03:14:58.156Z,1021.87
2016-03-18T03:15:58.190Z,1021.88
2016-03-18T03:16:58.192Z,1021.9
2016-03-18T03:17:58.212Z,1021.9
2016-03-18T03:19:04.495Z,1021.94
2016-03-18T03:19:58.232Z,1021.96
2016-03-18T03:20:58.235Z,1021.88
2016-03-18T03:21:58.269Z,1021.86
2016-03-18T03:22:58.287Z,1021.89
2016-03-18T03:23:58.290Z,1021.9
2016-03-18T03:24:58.308Z,1021.86
2016-03-18T03:25:58.311Z,1021.88
2016-03-18T03:26:58.329Z,1021.82
2016-03-18T03:27:58.347Z,1021.82
2016-03-18T03:28:58.366Z,1021.79
2016-03-18T03:30:04.650Z,1021.75
2016-03-18T03:31:11.139Z,1021.66
2016-03-18T03:31:58.420Z,1021.71
2016-03-18T03:32:58.517Z,1021.74
2016-03-18T03:33:58.441Z,1021.76
2016-03-18T03:34:58.508Z,1021.76
2016-03-18T03:35:58.463Z,1021.71
2016-03-18T03:36:58.497Z,1021.72
2016-03-18T03:37:58.499Z,1021.67
2016-03-18T03:38:58.518Z,1021.7
2016-03-18T03:39:58.535Z,1021.76
2016-03-18T03:41:11.291Z,1021.72
2016-03-18T03:41:58.572Z,1021.7
2016-03-18T03:42:58.575Z,1021.75
2016-03-18T03:43:58.593Z,1021.81
2016-03-18T03:44:58.612Z,1021.73
2016-03-18T03:46:08.165Z,1021.72
2016-03-18T03:47:08.198Z,1021.69
2016-03-18T03:48:14.451Z,1021.68
2016-03-18T03:49:08.204Z,1021.65
2016-03-18T03:50:08.222Z,1021.66
2016-03-18T03:51:08.240Z,1021.63
2016-03-18T03:52:08.259Z,1021.6
2016-03-18T03:53:21.011Z,1021.62
2016-03-18T03:54:08.326Z,1021.62
2016-03-18T03:55:08.298Z,1021.66
2016-03-18T03:56:08.331Z,1021.62
2016-03-18T03:57:08.334Z,1021.65
2016-03-18T03:58:08.352Z,1021.6
2016-03-18T03:59:08.355Z,1021.61
2016-03-18T04:00:08.373Z,1021.62
2016-03-18T04:01:08.392Z,1021.61
2016-03-18T04:02:08.426Z,1021.65
2016-03-18T04:03:21.147Z,1021.64
2016-03-18T04:04:08.431Z,1021.64
2016-03-18T04:05:08.434Z,1021.64
2016-03-18T04:06:08.452Z,1021.62
2016-03-18T04:07:08.486Z,1021.62
2016-03-18T04:08:09.902Z,1021.6
2016-03-18T04:09:09.920Z,1021.61
2016-03-18T04:10:08.517Z,1021.62
2016-03-18T04:11:08.551Z,1021.59
2016-03-18T04:12:08.553Z,1021.61
2016-03-18T04:13:08.572Z,1021.57
2016-03-18T04:14:08.590Z,1021.53
2016-03-18T04:15:08.593Z,1021.54
2016-03-18T04:16:21.345Z,1021.52
2016-03-18T04:17:08.629Z,1021.53
2016-03-18T04:18:08.647Z,1021.5
2016-03-18T04:19:08.666Z,1021.44
2016-03-18T04:21:24.014Z,1021.43
2016-03-18T04:22:24.033Z,1021.44
2016-03-18T04:23:24.051Z,1021.43
2016-03-18T04:24:24.054Z,1021.4
2016-03-18T04:25:24.072Z,1021.4
2016-03-18T04:26:24.091Z,1021.46
2016-03-18T04:27:24.296Z,1021.52
2016-03-18T04:28:36.941Z,1021.55
2016-03-18T04:29:24.130Z,1021.6
2016-03-18T04:30:24.149Z,1021.53
2016-03-18T04:31:24.151Z,1021.54
2016-03-18T04:32:24.185Z,1021.49
2016-03-18T04:33:36.921Z,1021.48
2016-03-18T04:35:58.802Z,1021.48
2016-03-18T04:36:58.821Z,1021.51
2016-03-18T04:38:11.576Z,1021.49
2016-03-18T04:38:58.857Z,1021.56
2016-03-18T04:40:24.551Z,1021.58
2016-03-18T04:41:08.459Z,1021.49
2016-03-18T04:42:08.478Z,1021.49
2016-03-18T04:43:08.495Z,1021.45
2016-03-18T04:44:18.031Z,1021.36
2016-03-18T04:46:33.207Z,1021.37
2016-03-18T04:47:33.225Z,1021.31
2016-03-18T04:48:49.244Z,1021.32
2016-03-18T04:49:49.262Z,1021.35
2016-03-18T04:50:49.281Z,1021.27
2016-03-18T04:51:49.299Z,1021.3
2016-03-18T04:52:49.302Z,1021.33
2016-03-18T04:53:49.335Z,1021.36
2016-03-18T04:55:08.653Z,1021.34
2016-03-18T04:56:08.563Z,1021.36
2016-03-18T04:57:23.768Z,1021.34
2016-03-18T04:58:23.802Z,1021.29
2016-03-18T04:59:23.805Z,1021.28
2016-03-18T05:00:23.824Z,1021.25
2016-03-18T05:01:23.841Z,1021.25
2016-03-18T05:02:36.578Z,1021.25
2016-03-18T05:03:36.596Z,1021.25
2016-03-18T05:04:23.880Z,1021.22
2016-03-18T05:05:46.165Z,1021.21
2016-03-18T05:06:46.167Z,1021.17
2016-03-18T05:07:49.529Z,1021.19
2016-03-18T05:08:49.484Z,1021.16
2016-03-18T05:10:15.178Z,1021.18
2016-03-18T05:11:24.540Z,1021.23
2016-03-18T05:12:08.511Z,1021.21
2016-03-18T05:13:11.593Z,1021.28
2016-03-18T05:14:37.282Z,1021.26
2016-03-18T05:15:46.832Z,1021.25
2016-03-18T05:16:30.726Z,1021.26
2016-03-18T05:17:30.728Z,1021.26
2016-03-18T05:19:46.578Z,1021.26
2016-03-18T05:20:46.611Z,1021.26
2016-03-18T05:21:46.614Z,1021.26
2016-03-18T05:22:52.897Z,1021.23
2016-03-18T05:23:46.650Z,1021.21
2016-03-18T05:24:46.669Z,1021.21
2016-03-18T05:25:46.671Z,1021.21
2016-03-18T05:26:59.424Z,1021.2
2016-03-18T05:27:52.973Z,1021.21
2016-03-18T05:29:05.929Z,1021.25
2016-03-18T05:29:46.729Z,1021.21
2016-03-18T05:31:56.296Z,1021.18
2016-03-18T05:34:37.165Z,1021.12
2016-03-18T05:35:11.511Z,1021.12
2016-03-18T05:36:11.546Z,1021.11
2016-03-18T05:37:21.094Z,1021.06
2016-03-18T05:38:46.769Z,1021.05
2016-03-18T05:39:30.678Z,1021.09
2016-03-18T05:40:40.226Z,1021.1
2016-03-18T05:41:49.776Z,1021.07
2016-03-18T05:43:15.470Z,1021.05
2016-03-18T05:44:30.785Z,1021.05
2016-03-18T05:45:30.787Z,1021.04
2016-03-18T05:46:30.806Z,1021.05
2016-03-18T05:47:43.558Z,1021.02
2016-03-18T05:48:37.093Z,1021.03
2016-03-18T05:49:56.533Z,1021
2016-03-18T05:50:30.879Z,1021.01
2016-03-18T05:52:40.431Z,1020.97
2016-03-18T05:54:55.703Z,1021.01
2016-03-18T05:55:55.705Z,1020.98
2016-03-18T05:56:55.724Z,1021.04
2016-03-18T05:57:55.742Z,1021.04
2016-03-18T05:59:08.497Z,1021.05
2016-03-18T05:59:55.763Z,1021.03
2016-03-18T06:01:08.518Z,1021.05
2016-03-18T06:01:55.799Z,1021.03
2016-03-18T06:03:15.039Z,1021.01
2016-03-18T06:03:55.836Z,1021.06
2016-03-18T06:04:55.838Z,1021.07
2016-03-18T06:06:05.513Z,1021.1
2016-03-18T06:07:05.531Z,1021.15
2016-03-18T06:08:11.802Z,1021.13
2016-03-18T06:09:31.227Z,1021.17
2016-03-18T06:10:05.571Z,1021.2
2016-03-18T06:12:05.592Z,1021.2
2016-03-18T06:13:05.610Z,1021.19
2016-03-18T06:14:05.645Z,1021.21
2016-03-18T06:15:05.647Z,1021.2
2016-03-18T06:16:05.665Z,1021.19
2016-03-18T06:17:05.668Z,1021.18
2016-03-18T06:18:05.702Z,1021.15
2016-03-18T06:19:05.704Z,1021.14
2016-03-18T06:20:05.722Z,1021.12
2016-03-18T06:21:24.931Z,1021.09
2016-03-18T06:22:08.965Z,1021.02
2016-03-18T06:23:09.124Z,1020.98
2016-03-18T06:24:15.267Z,1021.02
2016-03-18T06:25:34.786Z,1021.02
2016-03-18T06:26:08.976Z,1021.01
2016-03-18T06:27:09.135Z,1021.02
2016-03-18T06:28:09.560Z,1021.04
2016-03-18T06:30:24.425Z,1021
2016-03-18T06:31:24.443Z,1021.04
2016-03-18T06:32:24.649Z,1021.08
2016-03-18T06:33:24.479Z,1021.08
2016-03-18T06:34:24.482Z,1021.08
2016-03-18T06:35:24.500Z,1021.07
2016-03-18T06:36:34.191Z,1021.05
2016-03-18T06:37:34.209Z,1021.06
2016-03-18T06:38:34.227Z,1021.08
2016-03-18T06:39:34.246Z,1021.08
2016-03-18T06:40:47.092Z,1021.08
2016-03-18T06:41:47.001Z,1021.08
2016-03-18T06:42:59.956Z,1021.04
2016-03-18T06:43:34.304Z,1021.01
2016-03-18T06:44:34.321Z,1021.01
2016-03-18T06:45:34.340Z,1021.02
2016-03-18T06:46:34.358Z,1021.03
2016-03-18T06:48:00.048Z,1021.02
2016-03-18T06:48:38.785Z,1021.03
2016-03-18T06:49:38.788Z,1021.01
2016-03-18T06:50:38.806Z,1020.99
2016-03-18T06:51:38.825Z,1020.99
2016-03-18T06:52:45.109Z,1020.94
2016-03-18T06:53:51.581Z,1021.01
2016-03-18T06:54:58.067Z,1021.02
2016-03-18T06:55:39.148Z,1021.02
2016-03-18T06:56:39.295Z,1021.02
2016-03-18T06:57:58.349Z,1021.02
2016-03-18T06:58:39.355Z,1021.02
2016-03-18T06:59:39.110Z,1020.98
2016-03-18T07:00:38.898Z,1020.99
2016-03-18T07:01:38.926Z,1020.95
2016-03-18T07:02:39.238Z,1020.98
2016-03-18T07:03:51.986Z,1020.98
2016-03-18T07:04:39.203Z,1020.98
2016-03-18T07:05:39.233Z,1020.96
2016-03-18T07:06:42.390Z,1020.88
2016-03-18T07:07:42.391Z,1020.84
2016-03-18T07:08:42.440Z,1020.9
2016-03-18T07:09:48.707Z,1020.91
2016-03-18T07:10:45.458Z,1020.95
2016-03-18T07:11:48.741Z,1020.94
2016-03-18T07:12:42.494Z,1020.92
2016-03-18T07:13:42.496Z,1020.87
2016-03-18T07:15:01.717Z,1020.9
2016-03-18T07:15:42.531Z,1020.9
2016-03-18T07:16:42.549Z,1020.95
2016-03-18T07:17:48.817Z,1021.02
2016-03-18T07:18:42.569Z,1020.95
2016-03-18T07:19:55.321Z,1020.95
2016-03-18T07:20:42.605Z,1020.98
2016-03-18T07:21:42.624Z,1021.01
2016-03-18T07:22:45.704Z,1021.03
2016-03-18T07:23:45.723Z,1021.05
2016-03-18T07:24:45.741Z,1021.01
2016-03-18T07:25:45.759Z,1021
2016-03-18T07:26:45.778Z,1021.08
2016-03-18T07:27:45.812Z,1021.06
2016-03-18T07:28:52.065Z,1021.03
2016-03-18T07:29:45.817Z,1021.04
2016-03-18T07:30:45.835Z,1021.03
2016-03-18T07:31:45.854Z,1021.03
2016-03-18T07:32:45.872Z,1021.09
2016-03-18T07:33:45.891Z,1021.14
2016-03-18T07:34:58.674Z,1021.17
2016-03-18T07:35:45.927Z,1021.2
2016-03-18T07:36:45.945Z,1021.21
2016-03-18T07:37:45.964Z,1021.21
2016-03-18T07:38:45.982Z,1021.22
2016-03-18T07:39:45.985Z,1021.22
2016-03-18T07:40:46.002Z,1021.21
2016-03-18T07:41:46.021Z,1021.23
2016-03-18T07:42:47.461Z,1021.23
2016-03-18T07:43:46.057Z,1021.26
2016-03-18T07:44:46.076Z,1021.25
2016-03-18T07:45:46.094Z,1021.26
2016-03-18T07:46:46.096Z,1021.19
2016-03-18T07:47:46.147Z,1021.15
2016-03-18T07:48:46.134Z,1021.18
2016-03-18T07:49:46.152Z,1021.19
2016-03-18T07:50:46.170Z,1021.27
2016-03-18T07:51:46.189Z,1021.22
2016-03-18T07:52:46.207Z,1021.3
2016-03-18T07:53:46.834Z,1021.25
2016-03-18T07:54:46.243Z,1021.3
2016-03-18T07:55:46.856Z,1021.31
2016-03-18T07:56:46.281Z,1021.28
2016-03-18T07:57:46.299Z,1021.29
2016-03-18T07:58:46.317Z,1021.27
2016-03-18T07:59:59.053Z,1021.32
2016-03-18T08:00:46.417Z,1021.28
2016-03-18T08:02:05.559Z,1021.31
2016-03-18T08:02:46.390Z,1021.3
2016-03-18T08:05:01.599Z,1021.32
2016-03-18T08:06:01.602Z,1021.25
2016-03-18T08:07:01.619Z,1021.27
2016-03-18T08:08:07.920Z,1021.28
2016-03-18T08:09:01.656Z,1021.29
2016-03-18T08:10:01.674Z,1021.33
2016-03-18T08:11:01.693Z,1021.25
2016-03-18T08:12:01.711Z,1021.32
2016-03-18T08:13:07.995Z,1021.31
2016-03-18T08:14:01.748Z,1021.3
2016-03-18T08:15:01.766Z,1021.28
2016-03-18T08:16:01.784Z,1021.29
2016-03-18T08:17:14.540Z,1021.23
2016-03-18T08:18:01.821Z,1021.25
2016-03-18T08:19:01.840Z,1021.22
2016-03-18T08:20:01.842Z,1021.19
2016-03-18T08:21:01.860Z,1021.21
2016-03-18T08:22:14.615Z,1021.18
2016-03-18T08:23:01.897Z,1021.15
2016-03-18T08:24:01.915Z,1021.1
2016-03-18T08:25:01.918Z,1021.1
2016-03-18T08:26:01.951Z,1021.12
2016-03-18T08:27:08.127Z,1021.15
2016-03-18T08:28:05.114Z,1021.2
2016-03-18T08:29:05.131Z,1021.25
2016-03-18T08:30:05.135Z,1021.27
2016-03-18T08:31:05.153Z,1021.34
2016-03-18T08:32:05.172Z,1021.29
2016-03-18T08:33:05.205Z,1021.34
2016-03-18T08:34:05.208Z,1021.37
2016-03-18T08:35:05.225Z,1021.36
2016-03-18T08:36:05.245Z,1021.43
2016-03-18T08:37:05.263Z,1021.45
2016-03-18T08:38:05.281Z,1021.48
2016-03-18T08:39:05.299Z,1021.47
2016-03-18T08:40:18.055Z,1021.42
2016-03-18T08:41:05.336Z,1021.48
2016-03-18T08:42:31.044Z,1021.42
2016-03-18T08:43:15.079Z,1021.43
2016-03-18T08:44:15.097Z,1021.49
2016-03-18T08:45:15.116Z,1021.56
2016-03-18T08:46:15.133Z,1021.6
2016-03-18T08:47:15.151Z,1021.55
2016-03-18T08:48:15.171Z,1021.53
2016-03-18T08:49:15.188Z,1021.53
2016-03-18T08:50:15.206Z,1021.57
2016-03-18T08:51:15.226Z,1021.64
2016-03-18T08:52:15.243Z,1021.6
2016-03-18T08:53:15.246Z,1021.6
2016-03-18T08:54:15.280Z,1021.62
2016-03-18T08:55:15.298Z,1021.63
2016-03-18T08:56:15.300Z,1021.69
2016-03-18T08:57:15.320Z,1021.65
2016-03-18T08:58:15.353Z,1021.62
2016-03-18T08:59:15.371Z,1021.57
2016-03-18T09:00:15.983Z,1021.68
2016-03-18T09:01:15.408Z,1021.63
2016-03-18T09:02:28.145Z,1021.61
2016-03-18T09:03:15.429Z,1021.6
2016-03-18T09:04:34.650Z,1021.61
2016-03-18T09:05:15.466Z,1021.59
2016-03-18T09:06:15.484Z,1021.58
2016-03-18T09:07:24.893Z,1021.59
2016-03-18T09:08:24.911Z,1021.55
2016-03-18T09:09:31.194Z,1021.58
2016-03-18T09:10:24.948Z,1021.49
2016-03-18T09:11:24.966Z,1021.51
2016-03-18T09:12:37.750Z,1021.54
2016-03-18T09:13:25.019Z,1021.49
2016-03-18T09:14:25.021Z,1021.44
2016-03-18T09:15:25.055Z,1021.47
2016-03-18T09:16:25.058Z,1021.56
2016-03-18T09:17:25.076Z,1021.53
2016-03-18T09:18:25.094Z,1021.49
2016-03-18T09:19:25.112Z,1021.46
2016-03-18T09:20:25.131Z,1021.42
2016-03-18T09:21:25.149Z,1021.36
2016-03-18T09:22:25.168Z,1021.37
2016-03-18T09:23:44.389Z,1021.33
2016-03-18T09:24:28.345Z,1021.33
2016-03-18T09:25:28.363Z,1021.28
2016-03-18T09:26:41.115Z,1021.26
2016-03-18T09:27:28.400Z,1021.25
2016-03-18T09:28:41.153Z,1021.26
2016-03-18T09:29:28.437Z,1021.24
2016-03-18T09:30:28.455Z,1021.21
2016-03-18T09:31:28.458Z,1021.19
2016-03-18T09:32:28.476Z,1021.18
2016-03-18T09:33:28.509Z,1021.19
2016-03-18T09:34:28.512Z,1021.18
2016-03-18T09:35:28.530Z,1021.19
2016-03-18T09:36:38.112Z,1021.17
2016-03-18T09:37:38.130Z,1021.17
2016-03-18T09:38:38.164Z,1021.2
2016-03-18T09:39:38.166Z,1021.18
2016-03-18T09:40:38.200Z,1021.16
2016-03-18T09:41:38.250Z,1021.23
2016-03-18T09:42:38.237Z,1021.27
2016-03-18T09:43:39.661Z,1021.3
2016-03-18T09:44:38.258Z,1021.32
2016-03-18T09:45:38.276Z,1021.34
2016-03-18T09:46:44.577Z,1021.37
2016-03-18T09:47:38.313Z,1021.4
2016-03-18T09:48:38.331Z,1021.38
2016-03-18T09:49:38.413Z,1021.34
2016-03-18T09:50:38.368Z,1021.33
2016-03-18T09:51:38.401Z,1021.35
2016-03-18T09:52:38.405Z,1021.32
2016-03-18T09:53:38.438Z,1021.38
2016-03-18T09:54:38.441Z,1021.34
2016-03-18T09:55:38.460Z,1021.35
2016-03-18T09:56:38.478Z,1021.37
2016-03-18T09:57:51.231Z,1021.32
2016-03-18T09:58:38.514Z,1021.41
2016-03-18T09:59:38.533Z,1021.38
2016-03-18T10:00:38.550Z,1021.37
2016-03-18T10:01:39.178Z,1021.43
2016-03-18T10:02:38.587Z,1021.37
2016-03-18T10:03:38.606Z,1021.35
2016-03-18T10:04:38.624Z,1021.36
2016-03-18T10:06:04.300Z,1021.37
2016-03-18T10:06:48.223Z,1021.35
2016-03-18T10:07:48.241Z,1021.33
2016-03-18T10:08:48.261Z,1021.35
2016-03-18T10:09:49.700Z,1021.35
2016-03-18T10:10:54.234Z,1021.4
2016-03-18T10:11:52.831Z,1021.42
2016-03-18T10:12:52.849Z,1021.45
2016-03-18T10:13:52.867Z,1021.4
2016-03-18T10:14:52.885Z,1021.39
2016-03-18T10:16:12.110Z,1021.4
2016-03-18T10:16:52.922Z,1021.36
2016-03-18T10:18:18.616Z,1021.37
2016-03-18T10:18:59.225Z,1021.37
2016-03-18T10:19:52.977Z,1021.28
2016-03-18T10:20:53.090Z,1021.34
2016-03-18T10:21:53.060Z,1021.3
2016-03-18T10:22:53.032Z,1021.27
2016-03-18T10:23:53.034Z,1021.26
2016-03-18T10:25:08.318Z,1021.3
2016-03-18T10:26:08.337Z,1021.35
2016-03-18T10:28:17.907Z,1021.37
2016-03-18T10:29:17.926Z,1021.36
2016-03-18T10:30:17.944Z,1021.33
2016-03-18T10:31:17.962Z,1021.33
2016-03-18T10:32:17.980Z,1021.36
2016-03-18T10:33:18.000Z,1021.33
2016-03-18T10:34:18.018Z,1021.33
2016-03-18T10:35:18.036Z,1021.31
2016-03-18T10:36:18.054Z,1021.38
2016-03-18T10:37:18.088Z,1021.41
2016-03-18T10:38:18.294Z,1021.44
2016-03-18T10:39:24.375Z,1021.38
2016-03-18T10:40:24.393Z,1021.37
2016-03-18T10:41:37.349Z,1021.34
2016-03-18T10:42:18.164Z,1021.34
2016-03-18T10:43:18.183Z,1021.36
2016-03-18T10:44:18.200Z,1021.38
2016-03-18T10:45:18.203Z,1021.41
2016-03-18T10:46:24.502Z,1021.47
2016-03-18T10:47:18.255Z,1021.44
2016-03-18T10:48:18.274Z,1021.48
2016-03-18T10:49:24.557Z,1021.42
2016-03-18T10:50:37.514Z,1021.45
2016-03-18T10:51:37.532Z,1021.49
2016-03-18T10:52:18.346Z,1021.48
2016-03-18T10:53:18.366Z,1021.45
2016-03-18T10:54:18.399Z,1021.44
2016-03-18T10:55:18.402Z,1021.46
2016-03-18T10:56:18.421Z,1021.48
2016-03-18T10:57:18.439Z,1021.46
2016-03-18T10:58:37.660Z,1021.47
2016-03-18T10:59:19.898Z,1021.5
2016-03-18T11:00:18.493Z,1021.52
2016-03-18T11:01:18.512Z,1021.52
2016-03-18T11:02:18.531Z,1021.54
2016-03-18T11:03:18.548Z,1021.54
2016-03-18T11:04:24.926Z,1021.54
2016-03-18T11:05:18.570Z,1021.52
2016-03-18T11:06:31.322Z,1021.57
2016-03-18T11:07:18.622Z,1021.57
2016-03-18T11:08:18.640Z,1021.52
2016-03-18T11:09:18.642Z,1021.56
2016-03-18T11:10:18.661Z,1021.58
2016-03-18T11:11:18.695Z,1021.56
2016-03-18T11:12:31.447Z,1021.55
2016-03-18T11:13:31.466Z,1021.58
2016-03-18T11:14:37.953Z,1021.51
2016-03-18T11:15:18.769Z,1021.47
2016-03-18T11:16:28.177Z,1021.43
2016-03-18T11:17:53.868Z,1021.52
2016-03-18T11:18:32.152Z,1021.5
2016-03-18T11:19:32.169Z,1021.48
2016-03-18T11:20:32.188Z,1021.54
2016-03-18T11:21:32.207Z,1021.49
2016-03-18T11:22:32.225Z,1021.49
2016-03-18T11:23:32.243Z,1021.43
2016-03-18T11:24:32.262Z,1021.44
2016-03-18T11:25:38.545Z,1021.45
2016-03-18T11:26:32.298Z,1021.39
2016-03-18T11:27:32.316Z,1021.42
2016-03-18T11:28:45.069Z,1021.42
2016-03-18T11:29:32.353Z,1021.4
2016-03-18T11:30:32.386Z,1021.38
2016-03-18T11:31:38.656Z,1021.44
2016-03-18T11:32:32.408Z,1021.4
2016-03-18T11:33:32.442Z,1021.44
2016-03-18T11:34:32.444Z,1021.49
2016-03-18T11:35:32.462Z,1021.39
2016-03-18T11:36:32.497Z,1021.41
2016-03-18T11:37:32.483Z,1021.43
2016-03-18T11:38:47.689Z,1021.37
2016-03-18T11:39:47.708Z,1021.31
2016-03-18T11:40:47.726Z,1021.3
2016-03-18T11:41:48.353Z,1021.32
2016-03-18T11:42:47.763Z,1021.26
2016-03-18T11:44:00.516Z,1021.27
2016-03-18T11:44:47.800Z,1021.26
2016-03-18T11:45:47.818Z,1021.15
2016-03-18T11:46:47.836Z,1021.18
2016-03-18T11:47:47.855Z,1021.12
2016-03-18T11:48:47.872Z,1021.04
2016-03-18T11:49:47.891Z,1021.06
2016-03-18T11:50:47.909Z,1021.03
2016-03-18T11:51:47.928Z,1020.99
2016-03-18T11:52:47.946Z,1020.98
2016-03-18T11:53:47.964Z,1020.96
2016-03-18T11:54:47.982Z,1021
2016-03-18T11:55:48.001Z,1020.99
2016-03-18T11:57:00.754Z,1021.01
2016-03-18T11:57:48.043Z,1021.01
2016-03-18T11:58:48.061Z,1021.04
2016-03-18T12:00:00.814Z,1021.06
2016-03-18T12:00:48.097Z,1021.03
2016-03-18T12:01:48.115Z,1021.1
2016-03-18T12:02:48.134Z,1021.11
2016-03-18T12:03:48.152Z,1021.13
2016-03-18T12:04:48.170Z,1021.12
2016-03-18T12:05:48.189Z,1021.09
2016-03-18T12:06:48.192Z,1021.08
2016-03-18T12:07:54.492Z,1021.02
2016-03-18T12:08:48.244Z,1021.05
2016-03-18T12:09:48.262Z,1021.06
2016-03-18T12:10:48.296Z,1021.08
2016-03-18T12:11:48.299Z,1021.08
2016-03-18T12:12:48.317Z,1021.03
2016-03-18T12:13:48.335Z,1021
2016-03-18T12:14:48.354Z,1021.08
2016-03-18T12:15:48.371Z,1021.06
2016-03-18T12:16:48.406Z,1021.07
2016-03-18T12:17:48.408Z,1021.05
2016-03-18T12:18:48.521Z,1021.08
2016-03-18T12:19:48.446Z,1021.08
2016-03-18T12:20:48.479Z,1021.07
2016-03-18T12:21:48.482Z,1021.07
2016-03-18T12:22:48.516Z,1021.07
2016-03-18T12:23:48.535Z,1021.07
2016-03-18T12:24:48.552Z,1021.08
2016-03-18T12:25:48.571Z,1021.08
2016-03-18T12:26:48.589Z,1021.1
2016-03-18T12:27:48.607Z,1021.06
2016-03-18T12:28:48.626Z,1021.1
2016-03-18T12:29:48.722Z,1021.1
2016-03-18T12:30:48.662Z,1021.06
2016-03-18T12:31:48.681Z,1021.04
2016-03-18T12:32:48.699Z,1021.06
2016-03-18T12:33:48.717Z,1021.05